Freistatt, Missouri
Current Conditions -  °F | °C
As of 3:35 PM on Monday 24 Nov 2014 (Local Time) from KHFJ Reporting Station
Broken Clouds Broken Clouds  
Wind Chill: 42°   Ceiling: 5000
Heat Index: 48°   Visibility: 10mi
Dew Point: 28°   Wind: 15mph
Humidity: 46%   Direction: 270°W
Pressure: 29.87"   Gusts: 22mph
Location:  37.02°N, 93.9°W
Report Text: KHFJ 242135Z AUTO 27013G19KT 10SM BKN050 09/M02 A2987 RMK AO2
Loading
Personal Weather Stations






























Interactive Weather Map New forecast layout! Learn more

10-Day Weather Forecast

Advertisements
Track Severe Weather on mobile